KCWA/CWA METAR and TAF weather

Enter ICAO airport designator
Station Type Date Time Source
KCWA METAR 2018/10/22 15:47 UTC NOAA

KCWA 221547Z 23008KT 10SM FEW250 08/01 A3000


Station Type Date Time Source
KCWA Decoded METAR 2018/10/22 15:47 UTC NOAA

Mosinee / Central Wisconsin, WI, United States (KCWA) 44-47N 089-40W
Oct 22, 2018 - 11:47 AM EDT / 2018.10.22 1547 UTC
Wind: from the SW (230 degrees) at 9 MPH (8 KT):0
Visibility: 10 mile(s):0
Sky conditions: mostly clear
Temperature: 46 F (8 C)
Dew Point: 33 F (1 C)
Relative Humidity: 61%
Pressure (altimeter): 30 in. Hg (1015 hPa)
ob: KCWA 221547Z 23008KT 10SM FEW250 08/01 A3000
cycle: 16

Station Type Date Time Source
KCWA TAF 2018/10/22 12:22 UTC NOAA

TAF KCWA 221120Z 2212/2312 27004KT P6SM SKC
FM221700 27010G16KT P6SM SKC
FM222300 31009G15KT P6SM SCT040
FM230600 32008KT P6SM SCT025


Example: see airport list